Time;durP1;ratioP1;P1;durP2;ratioP2;P2;SDS_P1;SDS_P2;PMS_P1;PMS_P2;Temp;Humidity;BMP_temperature;BMP_pressure;BME280_temperature;BME280_humidity;BME280_pressure;Samples;Min_cycle;Max_cycle;Signal;HPM_P1;HPM_P2
2023/12/13 00:00:16;;;;;;;5.60;5.10;;;;;;;;;;2077522;28;20030;-76
2023/12/13 00:01:35;;;;;;;5.75;5.00;;;;;;;;;;2080039;28;20030;-77
2023/12/13 00:02:54;;;;;;;7.25;5.32;;;;;;;;;;2079729;28;20134;-76
2023/12/13 00:04:13;;;;;;;6.88;5.47;;;;;;;;;;2075018;28;20022;-76
2023/12/13 00:05:32;;;;;;;5.82;5.32;;;;;;;;;;2074547;28;20026;-77
2023/12/13 00:06:51;;;;;;;5.22;4.78;;;;;;;;;;2072952;28;20018;-77
2023/12/13 00:08:10;;;;;;;6.13;5.53;;;;;;;;;;2079785;28;20065;-77
2023/12/13 00:09:29;;;;;;;5.40;4.90;;;;;;;;;;2078483;28;20061;-76
2023/12/13 00:10:48;;;;;;;5.90;5.15;;;;;;;;;;2077415;28;20112;-76
2023/12/13 00:12:07;;;;;;;6.75;5.32;;;;;;;;;;2078139;28;20030;-76
2023/12/13 00:13:26;;;;;;;6.03;5.43;;;;;;;;;;2078478;28;20518;-76
2023/12/13 00:14:45;;;;;;;4.90;4.45;;;;;;;;;;2079451;28;20030;-76
2023/12/13 00:16:05;;;;;;;4.97;4.47;;;;;;;;;;2080411;28;20026;-76
2023/12/13 00:17:24;;;;;;;6.55;5.25;;;;;;;;;;2080219;28;20498;-76
2023/12/13 00:18:46;;;;;;;6.57;5.60;;;;;;;;;;2072205;28;20034;-76
2023/12/13 00:20:07;;;;;;;5.90;4.88;;;;;;;;;;2072831;28;20041;-76
2023/12/13 00:21:26;;;;;;;5.65;5.15;;;;;;;;;;2076170;28;20021;-76
2023/12/13 00:22:45;;;;;;;6.80;5.00;;;;;;;;;;2080631;28;20025;-76
2023/12/13 00:24:04;;;;;;;6.18;5.57;;;;;;;;;;2076200;28;20021;-76
2023/12/13 00:25:23;;;;;;;6.13;5.25;;;;;;;;;;2078194;28;20061;-76
2023/12/13 00:26:42;;;;;;;6.00;5.40;;;;;;;;;;2079561;28;20033;-76
2023/12/13 00:28:01;;;;;;;6.57;5.55;;;;;;;;;;2074106;28;20053;-76
2023/12/13 00:29:20;;;;;;;5.57;4.85;;;;;;;;;;2078265;28;20045;-77
2023/12/13 00:30:38;;;;;;;5.38;4.88;;;;;;;;;;2078911;28;20026;-76
2023/12/13 00:31:57;;;;;;;5.88;5.22;;;;;;;;;;2080214;28;20104;-76
2023/12/13 00:33:16;;;;;;;5.25;4.85;;;;;;;;;;2080013;28;20502;-77
2023/12/13 00:34:36;;;;;;;4.95;4.45;;;;;;;;;;2081324;28;20048;-76
2023/12/13 00:35:55;;;;;;;5.90;5.38;;;;;;;;;;2078616;28;20426;-75
2023/12/13 00:37:13;;;;;;;7.88;5.60;;;;;;;;;;2070238;28;20398;-76
2023/12/13 00:38:32;;;;;;;5.65;5.13;;;;;;;;;;2070769;28;20029;-76
2023/12/13 00:39:51;;;;;;;5.32;4.88;;;;;;;;;;2076543;28;20034;-77
2023/12/13 00:41:10;;;;;;;5.55;5.05;;;;;;;;;;2079203;28;20041;-76
2023/12/13 00:42:29;;;;;;;6.38;5.13;;;;;;;;;;2074766;28;20455;-76
2023/12/13 00:43:48;;;;;;;5.57;5.05;;;;;;;;;;2072020;28;20034;-76
2023/12/13 00:45:08;;;;;;;6.40;5.07;;;;;;;;;;2077784;28;20034;-76
2023/12/13 00:46:26;;;;;;;6.05;5.47;;;;;;;;;;2066543;28;20033;-76
2023/12/13 00:47:45;;;;;;;6.10;5.60;;;;;;;;;;2075306;28;20473;-76
2023/12/13 00:49:04;;;;;;;5.55;5.05;;;;;;;;;;2081431;28;20104;-76
2023/12/13 00:50:23;;;;;;;6.20;5.50;;;;;;;;;;2080418;28;20049;-77
2023/12/13 00:51:42;;;;;;;5.82;5.30;;;;;;;;;;2080316;28;20049;-77
2023/12/13 00:53:01;;;;;;;7.00;5.65;;;;;;;;;;2076038;28;20058;-76
2023/12/13 00:54:20;;;;;;;6.72;5.72;;;;;;;;;;2077056;28;20025;-76
2023/12/13 00:55:39;;;;;;;6.40;5.78;;;;;;;;;;2079174;28;20533;-76
2023/12/13 00:56:58;;;;;;;6.95;5.78;;;;;;;;;;2078313;28;20041;-76
2023/12/13 00:58:18;;;;;;;6.43;5.82;;;;;;;;;;2081896;28;20394;-76
2023/12/13 00:59:37;;;;;;;6.00;5.45;;;;;;;;;;2080359;28;20029;-76
2023/12/13 01:00:55;;;;;;;6.45;5.85;;;;;;;;;;2079995;28;20034;-76
2023/12/13 01:02:15;;;;;;;6.03;5.40;;;;;;;;;;2080162;28;20037;-76
2023/12/13 01:03:34;;;;;;;5.90;5.28;;;;;;;;;;2079076;28;20431;-77
2023/12/13 01:04:53;;;;;;;6.13;5.50;;;;;;;;;;2074346;28;20029;-77
2023/12/13 01:06:12;;;;;;;6.95;6.07;;;;;;;;;;2075555;28;20030;-77
2023/12/13 01:07:30;;;;;;;6.40;5.80;;;;;;;;;;2079359;28;20038;-77
2023/12/13 01:08:49;;;;;;;6.68;5.93;;;;;;;;;;2080668;28;20022;-77
2023/12/13 01:10:09;;;;;;;6.93;5.88;;;;;;;;;;2080333;28;20022;-76
2023/12/13 01:11:27;;;;;;;6.57;5.95;;;;;;;;;;2073885;28;20524;-77
2023/12/13 01:12:46;;;;;;;8.82;6.40;;;;;;;;;;2076085;28;20034;-77
2023/12/13 01:14:05;;;;;;;7.28;6.05;;;;;;;;;;2078233;28;20033;-76
2023/12/13 01:15:24;;;;;;;5.68;5.13;;;;;;;;;;2079928;28;20018;-77
2023/12/13 01:16:43;;;;;;;6.22;5.32;;;;;;;;;;2075558;28;20136;-76
2023/12/13 01:18:03;;;;;;;7.45;5.50;;;;;;;;;;2076234;28;20030;-77
2023/12/13 01:19:24;;;;;;;6.43;5.82;;;;;;;;;;2080909;28;20018;-76
2023/12/13 01:20:43;;;;;;;5.88;5.38;;;;;;;;;;2081064;28;20026;-76
2023/12/13 01:22:02;;;;;;;6.20;5.45;;;;;;;;;;2080014;28;20021;-76
2023/12/13 01:23:21;;;;;;;6.25;5.65;;;;;;;;;;2077885;28;20061;-76
2023/12/13 01:24:40;;;;;;;6.57;5.95;;;;;;;;;;2075338;28;20129;-77
2023/12/13 01:25:58;;;;;;;6.28;5.32;;;;;;;;;;2077987;28;20033;-77
2023/12/13 01:27:18;;;;;;;6.32;5.70;;;;;;;;;;2079777;28;20017;-77
2023/12/13 01:28:37;;;;;;;7.13;5.60;;;;;;;;;;2079100;28;20045;-75
2023/12/13 01:29:56;;;;;;;7.15;5.55;;;;;;;;;;2075838;28;20030;-76
2023/12/13 01:31:14;;;;;;;6.05;5.45;;;;;;;;;;2076427;28;20029;-76
2023/12/13 01:32:34;;;;;;;6.13;5.53;;;;;;;;;;2078704;28;20022;-76
2023/12/13 01:33:53;;;;;;;5.85;5.25;;;;;;;;;;2079232;28;20108;-77
2023/12/13 01:35:11;;;;;;;6.03;5.50;;;;;;;;;;2073042;28;20514;-76
2023/12/13 01:36:30;;;;;;;6.30;5.65;;;;;;;;;;2067530;28;20022;-77
2023/12/13 01:37:49;;;;;;;6.05;5.45;;;;;;;;;;2080759;28;20053;-76
2023/12/13 01:39:08;;;;;;;6.28;5.68;;;;;;;;;;2079648;28;20029;-77
2023/12/13 01:40:27;;;;;;;6.22;5.63;;;;;;;;;;2071329;28;20751;-76
2023/12/13 01:41:46;;;;;;;6.93;5.60;;;;;;;;;;2076855;28;20029;-76
2023/12/13 01:43:05;;;;;;;6.10;5.50;;;;;;;;;;2080503;28;20587;-76
2023/12/13 01:44:24;;;;;;;6.18;5.55;;;;;;;;;;2074966;28;20101;-76
2023/12/13 01:45:44;;;;;;;5.85;5.35;;;;;;;;;;2077402;28;20422;-76
2023/12/13 01:47:03;;;;;;;5.68;5.18;;;;;;;;;;2078502;28;20026;-76
2023/12/13 01:48:22;;;;;;;6.25;5.63;;;;;;;;;;2078628;28;20435;-76
2023/12/13 01:49:42;;;;;;;7.45;5.65;;;;;;;;;;2072379;28;20085;-76
2023/12/13 01:51:01;;;;;;;5.68;5.18;;;;;;;;;;2076935;28;20112;-76
2023/12/13 01:52:20;;;;;;;5.70;5.20;;;;;;;;;;2080784;28;20029;-76
2023/12/13 01:53:40;;;;;;;5.15;4.43;;;;;;;;;;2079658;28;20076;-76
2023/12/13 01:54:59;;;;;;;8.25;5.45;;;;;;;;;;2078747;28;20037;-76
2023/12/13 01:56:18;;;;;;;5.68;4.63;;;;;;;;;;2073897;28;20467;-76
2023/12/13 01:57:37;;;;;;;6.05;5.45;;;;;;;;;;2075182;28;20034;-77
2023/12/13 01:58:56;;;;;;;5.68;5.13;;;;;;;;;;2078256;28;20025;-76
2023/12/13 02:00:19;;;;;;;5.80;5.25;;;;;;;;;;2071680;28;20109;-77
2023/12/13 02:01:39;;;;;;;5.55;5.05;;;;;;;;;;2078469;28;20026;-76
2023/12/13 02:02:57;;;;;;;6.20;5.18;;;;;;;;;;2079350;28;20029;-76
2023/12/13 02:04:17;;;;;;;6.47;5.50;;;;;;;;;;2078198;28;20041;-76
2023/12/13 02:05:36;;;;;;;4.82;4.43;;;;;;;;;;2078008;28;20038;-76
2023/12/13 02:06:55;;;;;;;6.28;5.00;;;;;;;;;;2073840;28;20419;-76
2023/12/13 02:08:14;;;;;;;6.03;5.43;;;;;;;;;;2071829;28;20026;-77
2023/12/13 02:09:33;;;;;;;7.63;5.28;;;;;;;;;;2070385;28;20026;-76
2023/12/13 02:10:52;;;;;;;8.50;5.40;;;;;;;;;;2078775;28;20109;-76
2023/12/13 02:12:11;;;;;;;5.95;5.35;;;;;;;;;;2080735;28;20383;-77
2023/12/13 02:13:30;;;;;;;6.05;5.55;;;;;;;;;;2080264;28;20030;-76
2023/12/13 02:14:50;;;;;;;6.95;6.10;;;;;;;;;;2082701;28;20029;-77
2023/12/13 02:16:09;;;;;;;7.63;5.82;;;;;;;;;;2078811;28;20041;-77
2023/12/13 02:17:28;;;;;;;6.25;5.65;;;;;;;;;;2081661;28;20058;-77
2023/12/13 02:18:47;;;;;;;5.82;5.32;;;;;;;;;;2080515;28;20490;-77
2023/12/13 02:20:06;;;;;;;6.38;5.88;;;;;;;;;;2081828;28;20463;-77
2023/12/13 02:21:25;;;;;;;7.35;6.05;;;;;;;;;;2073461;28;20029;-77
2023/12/13 02:22:45;;;;;;;6.93;5.32;;;;;;;;;;2075809;28;20045;-77
2023/12/13 02:24:05;;;;;;;7.10;5.95;;;;;;;;;;2073483;28;20037;-76
2023/12/13 02:25:44;;;;;;;5.95;5.32;;;;;;;;;;2075634;28;20029;-77
2023/12/13 02:27:03;;;;;;;6.40;5.80;;;;;;;;;;2071640;28;20117;-76
2023/12/13 02:28:26;;;;;;;6.20;5.30;;;;;;;;;;2072313;28;20132;-77
2023/12/13 02:29:47;;;;;;;6.38;5.78;;;;;;;;;;2081092;28;20026;-77
2023/12/13 02:31:08;;;;;;;7.22;6.38;;;;;;;;;;2076159;28;20033;-76
2023/12/13 02:32:27;;;;;;;6.03;5.53;;;;;;;;;;2075167;28;20526;-77
2023/12/13 02:33:46;;;;;;;6.95;5.88;;;;;;;;;;2080841;28;20131;-77
2023/12/13 02:35:05;;;;;;;6.90;6.20;;;;;;;;;;2081727;28;20506;-77
2023/12/13 02:36:24;;;;;;;6.10;5.53;;;;;;;;;;2075048;28;20041;-76
2023/12/13 02:37:45;;;;;;;7.18;5.70;;;;;;;;;;2078836;28;20037;-77
2023/12/13 02:39:07;;;;;;;6.40;5.55;;;;;;;;;;2074833;28;20526;-76
2023/12/13 02:40:26;;;;;;;6.57;5.45;;;;;;;;;;2077590;28;20037;-77
2023/12/13 02:41:46;;;;;;;7.05;6.00;;;;;;;;;;2078992;28;20390;-76
2023/12/13 02:43:05;;;;;;;6.50;5.80;;;;;;;;;;2074651;28;20033;-76
2023/12/13 02:44:23;;;;;;;5.80;5.28;;;;;;;;;;2076741;28;20041;-76
2023/12/13 02:45:42;;;;;;;7.25;5.88;;;;;;;;;;2080489;28;20047;-76
2023/12/13 02:47:01;;;;;;;6.60;5.65;;;;;;;;;;2079540;28;20029;-77
2023/12/13 02:48:20;;;;;;;6.50;5.97;;;;;;;;;;2081013;28;20025;-77
2023/12/13 02:49:39;;;;;;;7.50;5.72;;;;;;;;;;2080040;28;20124;-76
2023/12/13 02:50:58;;;;;;;5.85;5.22;;;;;;;;;;2081738;28;20014;-77
2023/12/13 02:52:17;;;;;;;6.10;5.60;;;;;;;;;;2080727;28;20037;-78
2023/12/13 02:53:37;;;;;;;6.22;5.72;;;;;;;;;;2081924;28;20030;-77
2023/12/13 02:54:56;;;;;;;6.28;5.68;;;;;;;;;;2084128;28;20092;-77
2023/12/13 02:56:15;;;;;;;5.30;4.90;;;;;;;;;;2088839;28;20037;-77
2023/12/13 02:57:34;;;;;;;6.38;5.68;;;;;;;;;;2090119;28;20029;-77
2023/12/13 02:58:53;;;;;;;6.68;6.03;;;;;;;;;;2089852;28;20033;-77
2023/12/13 03:00:12;;;;;;;6.15;5.40;;;;;;;;;;2087868;28;20013;-77
2023/12/13 03:01:32;;;;;;;6.53;5.95;;;;;;;;;;2082751;28;20037;-77
2023/12/13 03:02:51;;;;;;;11.02;5.95;;;;;;;;;;2073365;28;20451;-77
2023/12/13 03:04:10;;;;;;;6.40;5.80;;;;;;;;;;2075170;28;20041;-76
2023/12/13 03:05:29;;;;;;;6.55;5.95;;;;;;;;;;2081767;28;20030;-77
2023/12/13 03:06:48;;;;;;;6.72;5.20;;;;;;;;;;2083693;28;20025;-76
2023/12/13 03:08:07;;;;;;;5.72;5.22;;;;;;;;;;2086442;28;20041;-78
2023/12/13 03:09:26;;;;;;;7.93;5.63;;;;;;;;;;2087228;28;20034;-76
2023/12/13 03:10:45;;;;;;;5.78;5.28;;;;;;;;;;2084358;28;20021;-76
2023/12/13 03:12:06;;;;;;;6.55;5.85;;;;;;;;;;2085519;28;20518;-77
2023/12/13 03:13:26;;;;;;;7.75;6.28;;;;;;;;;;2088696;28;20520;-76
2023/12/13 03:14:45;;;;;;;6.30;5.63;;;;;;;;;;2082306;28;20033;-76
2023/12/13 03:16:05;;;;;;;6.00;5.50;;;;;;;;;;2082163;28;20025;-76
2023/12/13 03:17:24;;;;;;;6.97;6.03;;;;;;;;;;2080883;28;20060;-76
2023/12/13 03:18:43;;;;;;;6.47;5.88;;;;;;;;;;2081208;28;20022;-76
2023/12/13 03:20:03;;;;;;;6.30;5.70;;;;;;;;;;2082173;28;20030;-76
2023/12/13 03:21:22;;;;;;;6.95;5.95;;;;;;;;;;2076107;28;20034;-76
2023/12/13 03:22:40;;;;;;;6.18;5.57;;;;;;;;;;2079385;28;20467;-76
2023/12/13 03:23:59;;;;;;;6.80;6.10;;;;;;;;;;2081530;28;20025;-77
2023/12/13 03:25:18;;;;;;;6.53;5.93;;;;;;;;;;2082075;28;20033;-76
2023/12/13 03:26:37;;;;;;;9.88;5.93;;;;;;;;;;2068964;28;20034;-76
2023/12/13 03:27:56;;;;;;;6.90;6.10;;;;;;;;;;2074867;28;20093;-76
2023/12/13 03:29:15;;;;;;;7.70;6.30;;;;;;;;;;2079633;28;20034;-76
2023/12/13 03:30:35;;;;;;;14.55;6.18;;;;;;;;;;2080305;28;20034;-77
2023/12/13 03:31:54;;;;;;;7.07;5.90;;;;;;;;;;2078792;28;20108;-76
2023/12/13 03:33:13;;;;;;;6.22;5.72;;;;;;;;;;2077985;28;20041;-76
2023/12/13 03:34:32;;;;;;;6.63;6.00;;;;;;;;;;2079968;28;20042;-76
2023/12/13 03:35:51;;;;;;;6.53;5.93;;;;;;;;;;2074068;28;20042;-77
2023/12/13 03:37:10;;;;;;;8.88;6.32;;;;;;;;;;2076454;28;20503;-76
2023/12/13 03:38:29;;;;;;;9.88;6.90;;;;;;;;;;2080449;28;20475;-77
2023/12/13 03:39:48;;;;;;;7.72;6.93;;;;;;;;;;2080362;28;20029;-77
2023/12/13 03:41:07;;;;;;;6.82;5.97;;;;;;;;;;2081790;28;20041;-77
2023/12/13 03:42:26;;;;;;;6.57;5.97;;;;;;;;;;2074253;28;20034;-76
2023/12/13 03:43:45;;;;;;;7.05;5.93;;;;;;;;;;2079356;28;20029;-76
2023/12/13 03:45:04;;;;;;;6.82;5.75;;;;;;;;;;2077761;28;20402;-77
2023/12/13 03:46:23;;;;;;;7.30;6.20;;;;;;;;;;2081536;28;20029;-77
2023/12/13 03:47:43;;;;;;;6.47;5.68;;;;;;;;;;2079528;28;20022;-76
2023/12/13 03:49:03;;;;;;;10.30;6.68;;;;;;;;;;2081990;28;20022;-77
2023/12/13 03:50:22;;;;;;;7.95;6.05;;;;;;;;;;2079968;28;20053;-77
2023/12/13 03:51:45;;;;;;;6.47;5.57;;;;;;;;;;2073324;28;20046;-77
2023/12/13 03:53:05;;;;;;;8.25;6.35;;;;;;;;;;2076978;28;20025;-77
2023/12/13 03:54:24;;;;;;;6.50;5.88;;;;;;;;;;2079876;28;20064;-77
2023/12/13 03:55:43;;;;;;;8.57;6.13;;;;;;;;;;2073318;28;20668;-77
2023/12/13 03:57:02;;;;;;;6.70;6.07;;;;;;;;;;2079335;28;20037;-77
2023/12/13 03:58:20;;;;;;;7.30;6.07;;;;;;;;;;2080687;28;20030;-77
2023/12/13 03:59:39;;;;;;;6.97;6.28;;;;;;;;;;2079410;28;20029;-77
2023/12/13 04:00:59;;;;;;;5.60;5.10;;;;;;;;;;2080445;28;20038;-77
2023/12/13 04:02:18;;;;;;;6.72;5.57;;;;;;;;;;2074718;28;20026;-77
2023/12/13 04:03:37;;;;;;;7.30;6.60;;;;;;;;;;2075541;28;20164;-76
2023/12/13 04:04:56;;;;;;;9.23;6.40;;;;;;;;;;2075307;28;20034;-76
2023/12/13 04:06:14;;;;;;;6.95;6.25;;;;;;;;;;2071027;28;20026;-76
2023/12/13 04:07:34;;;;;;;6.68;5.85;;;;;;;;;;2071306;28;20109;-77
2023/12/13 04:08:53;;;;;;;7.15;6.35;;;;;;;;;;2078589;28;20030;-76
2023/12/13 04:10:12;;;;;;;7.68;6.47;;;;;;;;;;2080548;28;20026;-74
2023/12/13 04:11:31;;;;;;;8.60;6.57;;;;;;;;;;2079837;28;20029;-76
2023/12/13 04:12:50;;;;;;;7.50;6.10;;;;;;;;;;2080290;28;20021;-76
2023/12/13 04:14:09;;;;;;;7.00;6.30;;;;;;;;;;2073647;28;20037;-76
2023/12/13 04:15:28;;;;;;;7.95;6.38;;;;;;;;;;2077785;28;20029;-76
2023/12/13 04:16:46;;;;;;;6.38;5.82;;;;;;;;;;2073211;28;20025;-76
2023/12/13 04:18:05;;;;;;;7.65;5.97;;;;;;;;;;2077215;28;20030;-76
2023/12/13 04:19:24;;;;;;;7.13;6.43;;;;;;;;;;2078880;28;20049;-77
2023/12/13 04:20:43;;;;;;;10.13;5.90;;;;;;;;;;2080321;28;20017;-75
2023/12/13 04:22:02;;;;;;;6.82;5.50;;;;;;;;;;2080977;28;20026;-76
2023/12/13 04:23:21;;;;;;;6.72;5.97;;;;;;;;;;2079588;28;20029;-77
2023/12/13 04:24:40;;;;;;;8.48;5.28;;;;;;;;;;2072489;28;20030;-76
2023/12/13 04:26:00;;;;;;;6.47;5.80;;;;;;;;;;2078571;28;20057;-77
2023/12/13 04:27:19;;;;;;;6.57;5.60;;;;;;;;;;2073646;28;20387;-77
2023/12/13 04:28:38;;;;;;;6.97;5.65;;;;;;;;;;2078778;28;20041;-77
2023/12/13 04:29:57;;;;;;;6.10;5.50;;;;;;;;;;2080399;28;20386;-76
2023/12/13 04:31:16;;;;;;;6.85;6.15;;;;;;;;;;2074782;28;20061;-77
2023/12/13 04:32:35;;;;;;;6.60;6.03;;;;;;;;;;2076257;28;20026;-77
2023/12/13 04:33:54;;;;;;;5.50;5.00;;;;;;;;;;2072541;28;20030;-77
2023/12/13 04:35:13;;;;;;;5.13;4.72;;;;;;;;;;2077652;28;20025;-76
2023/12/13 04:36:32;;;;;;;7.50;5.68;;;;;;;;;;2080264;28;20029;-77
2023/12/13 04:37:51;;;;;;;6.65;5.93;;;;;;;;;;2079488;28;20581;-77
2023/12/13 04:39:11;;;;;;;9.35;5.47;;;;;;;;;;2079641;28;20037;-77
2023/12/13 04:40:29;;;;;;;7.93;5.70;;;;;;;;;;2081175;28;20029;-77
2023/12/13 04:41:48;;;;;;;5.95;5.32;;;;;;;;;;2080031;28;20486;-76
2023/12/13 04:43:07;;;;;;;6.43;5.68;;;;;;;;;;2077418;28;20045;-76
2023/12/13 04:44:27;;;;;;;7.68;5.93;;;;;;;;;;2079743;28;20132;-77
2023/12/13 04:45:46;;;;;;;6.63;5.95;;;;;;;;;;2075068;28;20022;-77
2023/12/13 04:47:05;;;;;;;7.93;6.03;;;;;;;;;;2079333;28;20025;-76
2023/12/13 04:48:24;;;;;;;7.28;5.90;;;;;;;;;;2079610;28;20033;-76
2023/12/13 04:49:43;;;;;;;5.50;5.00;;;;;;;;;;2080120;28;20112;-76
2023/12/13 04:51:02;;;;;;;7.00;5.40;;;;;;;;;;2080780;28;20030;-77
2023/12/13 04:52:20;;;;;;;6.47;5.88;;;;;;;;;;2072934;28;20018;-76
2023/12/13 04:53:39;;;;;;;6.22;5.60;;;;;;;;;;2076972;28;20427;-76
2023/12/13 04:54:58;;;;;;;7.88;5.90;;;;;;;;;;2074279;28;20021;-76
2023/12/13 04:56:17;;;;;;;5.72;5.18;;;;;;;;;;2069142;28;20028;-76
2023/12/13 04:57:36;;;;;;;6.75;5.90;;;;;;;;;;2078399;28;20052;-76
2023/12/13 04:58:55;;;;;;;6.20;5.60;;;;;;;;;;2079687;28;20092;-76
2023/12/13 05:00:14;;;;;;;5.93;5.30;;;;;;;;;;2078197;28;20061;-76
2023/12/13 05:01:33;;;;;;;5.72;5.13;;;;;;;;;;2078215;28;20052;-76
2023/12/13 05:02:52;;;;;;;6.88;5.60;;;;;;;;;;2079574;28;20030;-76
2023/12/13 05:04:11;;;;;;;7.00;5.97;;;;;;;;;;2072717;28;20113;-76
2023/12/13 05:05:30;;;;;;;5.88;5.38;;;;;;;;;;2078218;28;20493;-76
2023/12/13 05:06:49;;;;;;;6.07;5.50;;;;;;;;;;2075221;28;20133;-76
2023/12/13 05:08:12;;;;;;;5.95;5.45;;;;;;;;;;2076145;28;20025;-76
2023/12/13 05:09:31;;;;;;;5.88;5.30;;;;;;;;;;2073195;28;20030;-76
2023/12/13 05:10:50;;;;;;;7.47;5.22;;;;;;;;;;2071439;28;20478;-76
2023/12/13 05:12:09;;;;;;;5.80;5.20;;;;;;;;;;2075745;28;20041;-76
2023/12/13 05:13:28;;;;;;;6.20;5.63;;;;;;;;;;2078783;28;20491;-76
2023/12/13 05:14:47;;;;;;;6.00;5.40;;;;;;;;;;2075011;28;20113;-76
2023/12/13 05:16:07;;;;;;;6.55;5.95;;;;;;;;;;2074191;28;20037;-76
2023/12/13 05:17:25;;;;;;;5.90;5.10;;;;;;;;;;2078299;28;20029;-77
2023/12/13 05:18:45;;;;;;;5.60;5.10;;;;;;;;;;2076524;28;20021;-76
2023/12/13 05:20:04;;;;;;;5.93;5.32;;;;;;;;;;2077975;28;20651;-77
2023/12/13 05:21:23;;;;;;;5.90;5.28;;;;;;;;;;2078860;28;20060;-77
2023/12/13 05:22:42;;;;;;;5.45;4.95;;;;;;;;;;2079392;28;20045;-78
2023/12/13 05:24:01;;;;;;;6.18;5.25;;;;;;;;;;2075583;28;20030;-78
2023/12/13 05:25:20;;;;;;;8.13;5.43;;;;;;;;;;2077247;28;20414;-78
2023/12/13 05:26:39;;;;;;;5.78;4.78;;;;;;;;;;2079186;28;20684;-76
2023/12/13 05:27:58;;;;;;;5.63;5.05;;;;;;;;;;2079473;28;20064;-77
2023/12/13 05:29:17;;;;;;;6.68;5.88;;;;;;;;;;2080093;28;20389;-76
2023/12/13 05:30:36;;;;;;;5.53;5.03;;;;;;;;;;2081768;28;20025;-76
2023/12/13 05:31:55;;;;;;;6.63;5.57;;;;;;;;;;2075536;28;20021;-75
2023/12/13 05:33:14;;;;;;;5.60;5.10;;;;;;;;;;2076996;28;20033;-76
2023/12/13 05:34:33;;;;;;;5.13;4.63;;;;;;;;;;2079281;28;20029;-76
2023/12/13 05:35:52;;;;;;;6.47;5.20;;;;;;;;;;2081068;28;20030;-77
2023/12/13 05:37:11;;;;;;;5.40;4.90;;;;;;;;;;2080663;28;20038;-77
2023/12/13 05:38:30;;;;;;;16.15;5.50;;;;;;;;;;2077823;28;20037;-77
2023/12/13 05:39:49;;;;;;;5.63;4.80;;;;;;;;;;2077193;28;20049;-79
2023/12/13 05:41:08;;;;;;;4.78;4.38;;;;;;;;;;2077997;28;20033;-77
2023/12/13 05:42:27;;;;;;;5.30;4.82;;;;;;;;;;2080802;28;20026;-79
2023/12/13 05:43:46;;;;;;;5.53;5.03;;;;;;;;;;2075245;28;20041;-79
2023/12/13 05:45:05;;;;;;;6.50;5.13;;;;;;;;;;2078509;28;20060;-79
2023/12/13 05:46:24;;;;;;;6.95;5.18;;;;;;;;;;2073142;28;20025;-78
2023/12/13 05:47:44;;;;;;;6.10;5.50;;;;;;;;;;2077113;28;20034;-79
2023/12/13 05:49:05;;;;;;;6.82;4.85;;;;;;;;;;2076159;28;20038;-77
2023/12/13 05:50:24;;;;;;;5.80;5.10;;;;;;;;;;2079362;28;20490;-78
2023/12/13 05:51:43;;;;;;;6.43;5.25;;;;;;;;;;2081465;28;20026;-77
2023/12/13 05:53:02;;;;;;;5.57;4.97;;;;;;;;;;2082971;28;20033;-77
2023/12/13 05:54:21;;;;;;;6.80;5.35;;;;;;;;;;2076074;28;20449;-77
2023/12/13 05:55:42;;;;;;;5.97;4.90;;;;;;;;;;2077500;28;20061;-78
2023/12/13 05:57:01;;;;;;;6.80;5.30;;;;;;;;;;2074021;28;20029;-78
2023/12/13 05:58:20;;;;;;;6.53;5.13;;;;;;;;;;2072186;28;20426;-78
2023/12/13 05:59:39;;;;;;;6.90;5.82;;;;;;;;;;2078546;28;20026;-79
2023/12/13 06:00:58;;;;;;;6.65;5.47;;;;;;;;;;2073998;28;20036;-77
2023/12/13 06:02:16;;;;;;;4.88;4.38;;;;;;;;;;2075669;28;20375;-77
2023/12/13 06:03:35;;;;;;;6.88;5.60;;;;;;;;;;2074565;28;20483;-76
2023/12/13 06:04:54;;;;;;;5.18;4.78;;;;;;;;;;2073312;28;20072;-76
2023/12/13 06:06:13;;;;;;;5.40;4.90;;;;;;;;;;2071216;28;20041;-77
2023/12/13 06:07:32;;;;;;;5.80;5.18;;;;;;;;;;2078217;28;20378;-77
2023/12/13 06:08:51;;;;;;;5.95;4.75;;;;;;;;;;2079852;28;20033;-76
2023/12/13 06:10:10;;;;;;;6.45;5.07;;;;;;;;;;2078689;28;20046;-76
2023/12/13 06:11:29;;;;;;;5.32;4.90;;;;;;;;;;2072247;28;20033;-76
2023/12/13 06:12:52;;;;;;;6.07;5.50;;;;;;;;;;2071948;28;20102;-77
2023/12/13 06:14:12;;;;;;;6.65;5.25;;;;;;;;;;2080294;28;20025;-77
2023/12/13 06:15:32;;;;;;;6.22;4.38;;;;;;;;;;2080223;28;20521;-76
2023/12/13 06:16:51;;;;;;;5.25;4.72;;;;;;;;;;2074700;28;20121;-77
2023/12/13 06:18:23;;;;;;;5.72;5.18;;;;;;;;;;2071537;28;20034;-77
2023/12/13 06:19:43;;;;;;;6.97;5.03;;;;;;;;;;2065045;28;20026;-75
2023/12/13 06:21:03;;;;;;;5.82;5.28;;;;;;;;;;2074344;28;20144;-74
2023/12/13 06:22:22;;;;;;;5.50;4.93;;;;;;;;;;2084482;28;20022;-76
2023/12/13 06:23:41;;;;;;;9.35;5.55;;;;;;;;;;2090911;28;20017;-78
2023/12/13 06:25:01;;;;;;;7.20;5.07;;;;;;;;;;2089652;28;20034;-77
2023/12/13 06:26:20;;;;;;;5.50;5.00;;;;;;;;;;2084881;28;20105;-75
2023/12/13 06:27:39;;;;;;;5.07;4.68;;;;;;;;;;2088922;28;20037;-75
2023/12/13 06:28:59;;;;;;;5.50;4.97;;;;;;;;;;2081894;28;20105;-74
2023/12/13 06:30:19;;;;;;;6.32;5.72;;;;;;;;;;2083557;28;20044;-75
2023/12/13 06:31:38;;;;;;;4.90;4.50;;;;;;;;;;2083516;28;20422;-76
2023/12/13 06:32:57;;;;;;;5.95;4.80;;;;;;;;;;2075809;28;20030;-74
2023/12/13 06:34:17;;;;;;;5.57;4.97;;;;;;;;;;2084687;28;20037;-74
2023/12/13 06:35:36;;;;;;;5.13;4.60;;;;;;;;;;2087606;28;20029;-75
2023/12/13 06:36:55;;;;;;;7.57;4.57;;;;;;;;;;2082247;28;20034;-74
2023/12/13 06:38:14;;;;;;;6.40;4.78;;;;;;;;;;2077978;28;20025;-77
2023/12/13 06:39:33;;;;;;;5.47;4.65;;;;;;;;;;2076821;28;20045;-75
2023/12/13 06:40:52;;;;;;;4.32;3.90;;;;;;;;;;2079014;28;20033;-76
2023/12/13 06:42:12;;;;;;;5.88;4.95;;;;;;;;;;2081380;28;20104;-73
2023/12/13 06:43:30;;;;;;;5.57;5.07;;;;;;;;;;2078812;28;20030;-74
2023/12/13 06:44:49;;;;;;;5.50;5.00;;;;;;;;;;2079690;28;20026;-73
2023/12/13 06:46:08;;;;;;;4.80;4.40;;;;;;;;;;2075560;28;20037;-73
2023/12/13 06:47:28;;;;;;;4.93;4.47;;;;;;;;;;2078257;28;20026;-73
2023/12/13 06:48:47;;;;;;;5.55;5.10;;;;;;;;;;2082616;28;20041;-73
2023/12/13 06:50:07;;;;;;;5.57;5.00;;;;;;;;;;2078808;28;20069;-72
2023/12/13 06:51:26;;;;;;;4.15;3.78;;;;;;;;;;2071814;28;21020;-74
2023/12/13 06:52:47;;;;;;;5.07;4.05;;;;;;;;;;2070289;28;20473;-74
2023/12/13 06:54:08;;;;;;;4.45;4.05;;;;;;;;;;2077687;28;20457;-74
2023/12/13 06:55:27;;;;;;;5.55;4.60;;;;;;;;;;2078781;28;20531;-74
2023/12/13 06:56:47;;;;;;;5.65;4.70;;;;;;;;;;2074121;28;20422;-73
2023/12/13 06:58:06;;;;;;;9.32;4.18;;;;;;;;;;2068457;28;20021;-73
2023/12/13 06:59:25;;;;;;;3.78;3.47;;;;;;;;;;2076945;28;20096;-74
2023/12/13 07:00:44;;;;;;;4.00;3.60;;;;;;;;;;2078558;28;20434;-75
2023/12/13 07:02:03;;;;;;;4.68;4.13;;;;;;;;;;2075952;28;20026;-74
2023/12/13 07:03:22;;;;;;;6.25;4.63;;;;;;;;;;2077886;28;20403;-76
2023/12/13 07:04:43;;;;;;;4.47;3.65;;;;;;;;;;2080765;28;20390;-73
2023/12/13 07:06:03;;;;;;;6.53;4.13;;;;;;;;;;2079983;28;20120;-73
2023/12/13 07:07:22;;;;;;;4.30;3.90;;;;;;;;;;2079294;28;20018;-74
2023/12/13 07:08:41;;;;;;;3.60;3.08;;;;;;;;;;2081403;28;20025;-73
2023/12/13 07:10:00;;;;;;;3.75;3.45;;;;;;;;;;2082137;28;20018;-74
2023/12/13 07:11:19;;;;;;;4.18;3.45;;;;;;;;;;2079381;28;20034;-73
2023/12/13 07:12:38;;;;;;;3.30;3.00;;;;;;;;;;2072539;28;20068;-73
2023/12/13 07:13:57;;;;;;;3.75;3.22;;;;;;;;;;2075780;28;20033;-73
2023/12/13 07:15:16;;;;;;;4.18;3.78;;;;;;;;;;2079584;28;20065;-75
2023/12/13 07:16:35;;;;;;;4.13;3.67;;;;;;;;;;2076802;28;20483;-73
2023/12/13 07:17:53;;;;;;;4.72;3.40;;;;;;;;;;2079368;28;20109;-73
2023/12/13 07:19:12;;;;;;;3.97;3.67;;;;;;;;;;2080452;28;20112;-73
2023/12/13 07:20:31;;;;;;;10.88;3.75;;;;;;;;;;2075335;28;20029;-73
2023/12/13 07:21:50;;;;;;;3.70;3.40;;;;;;;;;;2076768;28;20030;-74
2023/12/13 07:23:10;;;;;;;5.18;3.55;;;;;;;;;;2080881;28;20033;-73
2023/12/13 07:24:30;;;;;;;5.70;3.83;;;;;;;;;;2074731;28;20025;-75
2023/12/13 07:25:49;;;;;;;4.53;3.13;;;;;;;;;;2070552;28;20021;-74
2023/12/13 07:27:08;;;;;;;6.05;3.08;;;;;;;;;;2071443;28;20164;-73
2023/12/13 07:28:26;;;;;;;4.03;3.60;;;;;;;;;;2076893;28;20069;-74
2023/12/13 07:29:45;;;;;;;5.03;3.83;;;;;;;;;;2077513;28;20025;-74
2023/12/13 07:31:04;;;;;;;4.00;3.13;;;;;;;;;;2077779;28;20021;-73
2023/12/13 07:32:24;;;;;;;4.05;3.05;;;;;;;;;;2083207;28;20502;-74
2023/12/13 07:33:43;;;;;;;3.05;2.85;;;;;;;;;;2077531;28;20410;-73
2023/12/13 07:35:03;;;;;;;3.20;2.90;;;;;;;;;;2079231;28;20053;-73
2023/12/13 07:36:22;;;;;;;3.08;2.88;;;;;;;;;;2073401;28;20033;-75
2023/12/13 07:37:42;;;;;;;4.57;3.10;;;;;;;;;;2073292;28;20030;-74
2023/12/13 07:39:01;;;;;;;3.00;2.78;;;;;;;;;;2079213;28;20041;-73
2023/12/13 07:40:20;;;;;;;3.08;2.78;;;;;;;;;;2074268;28;20423;-74
2023/12/13 07:41:39;;;;;;;3.47;3.17;;;;;;;;;;2076969;28;20068;-73
2023/12/13 07:42:58;;;;;;;3.95;3.53;;;;;;;;;;2080127;28;20665;-73
2023/12/13 07:44:17;;;;;;;3.80;3.40;;;;;;;;;;2075370;28;20037;-73
2023/12/13 07:45:36;;;;;;;3.67;3.08;;;;;;;;;;2077369;28;20112;-74
2023/12/13 07:46:55;;;;;;;3.90;3.60;;;;;;;;;;2080098;28;20529;-73
2023/12/13 07:48:14;;;;;;;3.28;3.05;;;;;;;;;;2080376;28;20025;-74
2023/12/13 07:49:33;;;;;;;5.88;3.65;;;;;;;;;;2075418;28;20451;-74
2023/12/13 07:50:53;;;;;;;5.45;3.28;;;;;;;;;;2072884;28;20541;-74
2023/12/13 07:52:12;;;;;;;4.05;3.60;;;;;;;;;;2076889;28;20037;-73
2023/12/13 07:53:30;;;;;;;2.85;2.65;;;;;;;;;;2078299;28;20374;-76
2023/12/13 07:54:49;;;;;;;3.58;3.10;;;;;;;;;;2074886;28;20526;-74